Time;durP1;ratioP1;P1;durP2;ratioP2;P2;SDS_P1;SDS_P2;PMS_P1;PMS_P2;Temp;Humidity;BMP_temperature;BMP_pressure;BME280_temperature;BME280_humidity;BME280_pressure;Samples;Min_cycle;Max_cycle;Signal;HPM_P1;HPM_P2
2023/09/30 00:04:16;;;;;;;8.60;7.00;;;25.80;63.00;;;;;;217147;1291;22542;-64
2023/09/30 00:09:19;;;;;;;10.20;6.90;;;25.70;63.10;;;;;;217167;1294;23954;-63
2023/09/30 00:14:22;;;;;;;10.30;7.00;;;25.70;63.10;;;;;;217000;1293;22549;-64
2023/09/30 00:19:24;;;;;;;10.10;7.10;;;25.70;63.00;;;;;;216918;1292;22624;-64
2023/09/30 00:24:28;;;;;;;8.50;7.60;;;25.70;63.10;;;;;;217221;1294;22552;-64
2023/09/30 00:29:31;;;;;;;15.60;6.10;;;25.70;63.20;;;;;;217083;1283;24137;-63
2023/09/30 00:34:35;;;;;;;9.60;7.20;;;25.70;62.80;;;;;;216841;1291;22907;-64
2023/09/30 00:39:38;;;;;;;8.20;6.00;;;25.70;62.80;;;;;;217531;1292;22566;-63
2023/09/30 00:44:41;;;;;;;9.30;7.50;;;25.70;62.90;;;;;;217228;1295;22545;-65
2023/09/30 00:49:43;;;;;;;10.30;7.30;;;25.60;62.90;;;;;;217092;1292;22698;-65
2023/09/30 00:54:48;;;;;;;10.40;6.70;;;25.70;62.90;;;;;;217109;1291;22562;-62
2023/09/30 00:59:52;;;;;;;6.80;6.10;;;25.70;63.20;;;;;;217215;1292;22674;-65
2023/09/30 01:04:56;;;;;;;8.20;6.70;;;25.70;63.00;;;;;;217294;1291;27864;-64
2023/09/30 01:09:58;;;;;;;8.60;6.30;;;25.60;62.80;;;;;;217246;1294;24387;-63
2023/09/30 01:15:03;;;;;;;7.70;6.00;;;25.60;62.60;;;;;;217042;1294;22578;-63
2023/09/30 01:20:10;;;;;;;10.00;6.80;;;25.50;62.50;;;;;;217117;1291;24260;-63
2023/09/30 01:25:13;;;;;;;6.80;6.10;;;25.60;62.90;;;;;;217353;1298;26070;-63
2023/09/30 01:30:17;;;;;;;7.60;6.30;;;25.50;62.80;;;;;;216796;1291;22570;-63
2023/09/30 01:35:21;;;;;;;7.80;7.00;;;25.50;62.80;;;;;;217333;1291;22646;-63
2023/09/30 01:40:25;;;;;;;8.60;7.40;;;25.40;62.90;;;;;;217327;1288;22711;-66
2023/09/30 01:45:27;;;;;;;7.50;6.10;;;25.40;63.00;;;;;;217471;1288;25285;-64
2023/09/30 01:50:31;;;;;;;6.50;5.80;;;25.40;63.00;;;;;;217203;1298;22548;-64
2023/09/30 01:55:35;;;;;;;7.60;6.10;;;25.40;63.10;;;;;;217397;1294;22553;-65
2023/09/30 02:00:39;;;;;;;7.00;6.30;;;25.40;63.10;;;;;;217198;1291;22563;-64
2023/09/30 02:05:43;;;;;;;6.80;6.10;;;25.40;62.90;;;;;;217186;1292;22559;-65
2023/09/30 02:10:46;;;;;;;8.70;6.50;;;25.40;63.50;;;;;;217229;1288;24056;-64
2023/09/30 02:15:48;;;;;;;7.00;5.80;;;25.40;63.00;;;;;;217206;1292;25464;-64
2023/09/30 02:20:53;;;;;;;7.20;6.50;;;25.40;62.90;;;;;;217263;1291;22564;-64
2023/09/30 02:25:56;;;;;;;8.20;6.60;;;25.40;63.40;;;;;;217388;1282;22579;-64
2023/09/30 02:31:00;;;;;;;7.20;6.20;;;25.40;63.40;;;;;;216830;1294;22556;-64
2023/09/30 02:36:06;;;;;;;7.50;6.50;;;25.40;63.10;;;;;;217297;1283;23051;-63
2023/09/30 02:41:10;;;;;;;8.50;6.50;;;25.40;63.20;;;;;;217028;1285;24248;-64
2023/09/30 02:46:12;;;;;;;6.80;6.20;;;25.40;63.00;;;;;;217129;1282;23306;-64
2023/09/30 02:51:15;;;;;;;6.50;5.80;;;25.40;62.90;;;;;;217026;1292;24294;-64
2023/09/30 02:56:19;;;;;;;6.50;5.70;;;25.40;63.00;;;;;;217223;1292;23013;-64
2023/09/30 03:01:22;;;;;;;6.00;5.40;;;25.40;62.90;;;;;;217159;1291;22550;-65
2023/09/30 03:06:25;;;;;;;6.40;5.80;;;25.40;62.90;;;;;;216743;1294;386237;-63
2023/09/30 03:11:29;;;;;;;8.20;5.60;;;25.30;63.20;;;;;;217301;1292;25507;-65
2023/09/30 03:16:33;;;;;;;7.80;5.70;;;25.30;63.00;;;;;;216962;1297;22556;-64
2023/09/30 03:21:36;;;;;;;6.10;5.50;;;25.30;62.90;;;;;;217186;1294;22611;-64
2023/09/30 03:26:41;;;;;;;10.00;6.80;;;25.30;62.80;;;;;;217263;1295;25365;-63
2023/09/30 03:31:44;;;;;;;8.30;5.60;;;25.30;63.00;;;;;;217065;1276;22556;-64
2023/09/30 03:36:49;;;;;;;5.50;5.00;;;25.30;62.90;;;;;;217020;1285;22692;-62
2023/09/30 03:41:56;;;;;;;7.20;5.70;;;25.30;63.00;;;;;;217234;1292;24321;-63
2023/09/30 03:46:59;;;;;;;5.60;5.10;;;25.30;62.90;;;;;;217328;1298;24363;-65
2023/09/30 03:52:02;;;;;;;5.80;5.20;;;25.30;63.00;;;;;;217021;1298;22802;-64
2023/09/30 03:57:05;;;;;;;6.20;5.50;;;25.20;63.00;;;;;;217401;1285;22549;-63
2023/09/30 04:02:08;;;;;;;6.20;5.60;;;25.30;63.00;;;;;;217263;1294;22638;-65
2023/09/30 04:07:11;;;;;;;6.50;5.80;;;25.30;63.30;;;;;;217416;1294;22550;-64
2023/09/30 04:12:14;;;;;;;5.90;5.20;;;25.30;63.00;;;;;;217369;1297;26908;-64
2023/09/30 04:17:17;;;;;;;6.20;5.60;;;25.20;63.00;;;;;;217165;1292;22597;-63
2023/09/30 04:22:25;;;;;;;6.00;5.20;;;25.20;63.00;;;;;;217472;1297;22549;-63
2023/09/30 04:27:28;;;;;;;7.80;5.50;;;25.20;63.00;;;;;;217331;1297;22537;-66
2023/09/30 04:32:31;;;;;;;6.40;5.40;;;25.20;63.00;;;;;;217240;1298;22642;-64
2023/09/30 04:37:36;;;;;;;6.10;5.50;;;25.30;62.80;;;;;;217128;1298;22687;-63
2023/09/30 04:42:39;;;;;;;4.80;4.50;;;25.20;62.90;;;;;;217001;1296;25775;-63
2023/09/30 04:47:44;;;;;;;7.70;6.20;;;25.30;63.00;;;;;;217111;1294;25209;-63
2023/09/30 04:52:48;;;;;;;5.20;4.60;;;25.20;62.80;;;;;;217507;1285;22572;-65
2023/09/30 04:57:51;;;;;;;7.00;4.90;;;25.30;63.20;;;;;;217064;1298;24296;-63
2023/09/30 05:02:56;;;;;;;6.50;4.90;;;25.20;63.00;;;;;;217068;1297;24350;-67
2023/09/30 05:07:59;;;;;;;5.20;4.70;;;25.20;62.90;;;;;;217230;1291;22537;-62
2023/09/30 05:13:02;;;;;;;5.90;5.40;;;25.30;63.00;;;;;;217336;1291;23296;-64
2023/09/30 05:18:08;;;;;;;5.90;5.20;;;25.10;63.00;;;;;;217439;1291;22576;-64
2023/09/30 05:23:12;;;;;;;8.50;5.60;;;25.20;63.10;;;;;;217222;1291;23268;-62
2023/09/30 05:28:16;;;;;;;5.30;4.70;;;25.20;63.00;;;;;;216933;1288;22574;-64
2023/09/30 05:33:18;;;;;;;5.10;4.70;;;25.20;63.00;;;;;;217186;1291;22558;-64
2023/09/30 05:38:23;;;;;;;5.60;5.10;;;25.20;62.90;;;;;;217082;1298;22546;-62
2023/09/30 05:43:27;;;;;;;5.10;4.60;;;25.10;63.00;;;;;;217366;1294;22566;-63
2023/09/30 05:48:30;;;;;;;7.70;5.30;;;25.10;63.30;;;;;;217011;1298;22579;-63
2023/09/30 05:53:34;;;;;;;6.90;4.80;;;25.10;62.90;;;;;;216987;1288;22670;-64
2023/09/30 05:58:37;;;;;;;4.70;4.30;;;25.20;63.00;;;;;;217370;1291;22636;-63
2023/09/30 06:03:40;;;;;;;6.00;4.80;;;25.20;62.90;;;;;;217080;1291;22587;-63
2023/09/30 06:08:46;;;;;;;5.70;4.60;;;25.10;63.30;;;;;;217067;1291;22644;-64
2023/09/30 06:13:52;;;;;;;5.00;4.50;;;25.20;62.90;;;;;;217031;1284;22875;-63
2023/09/30 06:18:55;;;;;;;5.80;4.80;;;25.30;62.80;;;;;;217001;1292;22543;-64
2023/09/30 06:23:58;;;;;;;10.80;6.70;;;25.20;63.10;;;;;;217302;1294;23839;-64
2023/09/30 06:29:02;;;;;;;5.50;4.10;;;25.30;62.60;;;;;;217133;1282;24224;-63
2023/09/30 06:34:04;;;;;;;5.10;4.30;;;25.20;62.70;;;;;;218883;1291;22570;-62
2023/09/30 06:39:08;;;;;;;4.70;4.30;;;25.30;62.70;;;;;;217147;1291;22717;-63
2023/09/30 06:44:11;;;;;;;4.90;4.20;;;25.30;62.50;;;;;;217282;1292;24222;-65
2023/09/30 06:49:15;;;;;;;4.90;3.70;;;25.20;62.60;;;;;;217078;1298;22549;-64
2023/09/30 06:54:17;;;;;;;4.90;4.00;;;25.30;62.70;;;;;;217161;1295;24244;-63
2023/09/30 06:59:20;;;;;;;4.80;4.30;;;25.10;62.70;;;;;;217053;1298;24270;-64
2023/09/30 07:04:23;;;;;;;6.40;5.00;;;25.20;62.50;;;;;;217150;1297;25454;-65
2023/09/30 07:09:26;;;;;;;5.00;4.00;;;25.30;62.30;;;;;;217054;1294;23579;-63
2023/09/30 07:14:29;;;;;;;4.70;4.30;;;25.10;62.20;;;;;;217226;1292;22566;-63
2023/09/30 07:19:32;;;;;;;3.80;3.50;;;25.20;61.90;;;;;;217266;1298;22572;-63
2023/09/30 07:24:35;;;;;;;7.70;4.20;;;25.10;62.00;;;;;;216862;1285;22614;-63
2023/09/30 07:29:41;;;;;;;5.20;4.10;;;25.20;61.80;;;;;;217508;1285;22553;-63
2023/09/30 07:34:44;;;;;;;3.90;3.50;;;25.20;61.70;;;;;;216872;1286;25372;-64
2023/09/30 07:39:47;;;;;;;4.00;3.10;;;25.10;62.00;;;;;;216916;1297;22552;-65
2023/09/30 07:44:51;;;;;;;7.30;3.20;;;25.10;62.20;;;;;;217278;1296;25403;-64
2023/09/30 07:49:55;;;;;;;5.70;4.10;;;25.10;62.10;;;;;;217481;1295;24350;-62
2023/09/30 07:54:59;;;;;;;5.90;3.20;;;25.10;62.20;;;;;;217455;1292;25282;-64
2023/09/30 08:00:08;;;;;;;10.50;4.00;;;25.20;61.80;;;;;;217314;1281;23975;-60
2023/09/30 08:05:11;;;;;;;5.20;3.60;;;25.10;62.90;;;;;;217298;1291;22552;-62
2023/09/30 08:10:16;;;;;;;4.50;3.00;;;25.10;63.40;;;;;;217139;1285;25351;-63
2023/09/30 08:15:19;;;;;;;10.40;3.40;;;25.10;61.70;;;;;;217522;1292;22555;-64
2023/09/30 08:20:22;;;;;;;9.20;3.70;;;25.20;61.80;;;;;;217032;1297;22554;-65
2023/09/30 08:25:26;;;;;;;5.30;3.20;;;25.20;62.20;;;;;;217094;1288;22633;-64
2023/09/30 08:30:28;;;;;;;34.50;4.00;;;25.20;62.20;;;;;;217320;1292;22644;-65
2023/09/30 08:35:38;;;;;;;3.90;2.70;;;25.20;62.30;;;;;;217119;1298;22637;-64
2023/09/30 08:40:41;;;;;;;6.70;3.40;;;25.20;62.30;;;;;;217345;1295;24119;-63
2023/09/30 08:45:45;;;;;;;4.80;3.60;;;25.30;62.20;;;;;;216987;1292;22559;-63
2023/09/30 08:50:50;;;;;;;7.50;2.80;;;25.40;61.70;;;;;;217550;1295;22554;-64
2023/09/30 08:55:54;;;;;;;3.90;3.00;;;25.30;61.90;;;;;;217313;1297;23897;-64
2023/09/30 09:00:57;;;;;;;9.60;2.70;;;25.20;62.10;;;;;;217306;1291;25748;-66
2023/09/30 09:06:00;;;;;;;3.00;2.50;;;25.20;62.00;;;;;;217575;1295;22553;-64
2023/09/30 09:11:05;;;;;;;5.70;2.60;;;25.20;61.80;;;;;;217482;1298;23923;-65
2023/09/30 09:16:10;;;;;;;5.30;3.00;;;25.30;61.60;;;;;;217088;1291;23580;-62
2023/09/30 09:21:27;;;;;;;4.20;3.10;;;25.30;61.30;;;;;;217406;1292;24247;-66
2023/09/30 09:26:34;;;;;;;8.30;2.90;;;25.30;60.90;;;;;;217310;1298;22986;-67
2023/09/30 09:31:37;;;;;;;11.30;3.90;;;25.30;60.70;;;;;;217349;1291;24221;-67
2023/09/30 09:36:43;;;;;;;14.30;6.10;;;25.30;60.50;;;;;;217403;1289;23059;-63
2023/09/30 09:41:52;;;;;;;27.90;10.90;;;25.40;60.50;;;;;;217422;1295;23915;-65
2023/09/30 09:46:58;;;;;;;27.00;10.10;;;25.40;61.00;;;;;;217322;1292;22701;-63
2023/09/30 09:52:02;;;;;;;16.40;7.50;;;25.50;59.90;;;;;;217226;1295;22571;-63
2023/09/30 09:57:10;;;;;;;19.20;6.30;;;25.70;59.00;;;;;;217361;1285;24296;-62
2023/09/30 10:02:14;;;;;;;14.50;5.90;;;25.70;58.50;;;;;;217274;1292;24870;-61
2023/09/30 10:07:34;;;;;;;13.90;5.70;;;25.80;58.30;;;;;;217154;1295;22560;-66
2023/09/30 10:12:39;;;;;;;15.10;6.90;;;25.90;57.30;;;;;;217360;1294;22559;-64
2023/09/30 10:17:58;;;;;;;14.90;5.90;;;26.00;56.80;;;;;;216968;1286;24247;-61
2023/09/30 10:23:21;;;;;;;11.50;4.40;;;26.00;55.90;;;;;;217326;1285;25485;-61
2023/09/30 10:28:34;;;;;;;14.30;4.80;;;26.00;55.50;;;;;;217286;1297;25284;-59
2023/09/30 10:33:57;;;;;;;9.40;4.20;;;26.00;55.30;;;;;;217221;1298;23966;-63
2023/09/30 10:39:01;;;;;;;9.00;4.70;;;26.10;54.00;;;;;;216967;1285;25576;-64
2023/09/30 10:44:23;;;;;;;10.10;4.80;;;26.20;53.70;;;;;;217067;1289;22558;-63
2023/09/30 10:49:26;;;;;;;10.40;4.10;;;26.30;54.30;;;;;;217251;1298;22674;-64
2023/09/30 10:54:31;;;;;;;8.60;3.60;;;26.30;53.70;;;;;;217310;1291;24270;-65
2023/09/30 10:59:35;;;;;;;11.60;4.70;;;26.30;53.40;;;;;;217356;1296;22621;-61
2023/09/30 11:04:48;;;;;;;8.60;3.70;;;26.40;53.50;;;;;;216875;1284;22562;-58
2023/09/30 11:09:54;;;;;;;11.00;3.70;;;26.40;52.80;;;;;;217446;1298;22555;-61
2023/09/30 11:15:02;;;;;;;10.00;3.90;;;26.40;52.90;;;;;;217324;1279;24405;-61
2023/09/30 11:20:06;;;;;;;9.30;4.10;;;26.30;52.40;;;;;;217151;1288;22555;-62
2023/09/30 11:25:17;;;;;;;9.20;3.30;;;26.20;51.40;;;;;;217335;1285;22559;-62
2023/09/30 11:30:20;;;;;;;7.70;3.30;;;26.20;50.80;;;;;;217456;1298;24716;-61
2023/09/30 11:35:23;;;;;;;7.90;3.50;;;26.10;50.60;;;;;;216960;1295;25280;-62
2023/09/30 11:40:26;;;;;;;12.20;4.10;;;26.00;50.70;;;;;;217175;1291;26710;-61
2023/09/30 11:45:29;;;;;;;8.60;3.00;;;26.00;50.90;;;;;;217461;1296;22575;-63
2023/09/30 11:50:52;;;;;;;5.90;3.10;;;25.80;49.10;;;;;;217175;1298;24251;-60
2023/09/30 11:55:59;;;;;;;6.90;2.90;;;25.70;49.50;;;;;;217507;1298;24726;-62
2023/09/30 12:01:03;;;;;;;9.10;3.60;;;25.70;50.10;;;;;;217316;1289;24352;-62
2023/09/30 12:06:13;;;;;;;6.60;2.60;;;25.80;50.10;;;;;;217450;1292;25460;-62
2023/09/30 12:11:18;;;;;;;7.90;3.00;;;25.90;51.30;;;;;;219324;1297;22582;-60
2023/09/30 12:16:21;;;;;;;7.50;3.10;;;26.10;50.40;;;;;;217316;1293;25167;-63
2023/09/30 12:21:24;;;;;;;14.10;3.20;;;26.10;50.00;;;;;;217429;1292;25284;-62
2023/09/30 12:26:27;;;;;;;8.10;3.10;;;26.20;50.40;;;;;;217384;1295;24253;-61
2023/09/30 12:31:30;;;;;;;5.90;3.10;;;26.30;50.20;;;;;;217256;1298;22576;-63
2023/09/30 12:36:57;;;;;;;10.30;3.10;;;26.20;50.50;;;;;;216978;1292;22556;-62
2023/09/30 12:42:00;;;;;;;10.00;3.20;;;26.10;50.60;;;;;;217361;1277;24328;-63
2023/09/30 12:47:04;;;;;;;4.70;2.90;;;26.10;50.70;;;;;;216899;1293;25204;-67
2023/09/30 12:52:11;;;;;;;5.30;2.90;;;26.20;50.60;;;;;;216947;1292;22556;-62
2023/09/30 12:57:17;;;;;;;8.50;3.00;;;26.00;50.70;;;;;;216873;1285;24500;-61
2023/09/30 13:02:20;;;;;;;8.90;3.50;;;26.00;50.30;;;;;;217202;1295;25389;-59
2023/09/30 13:07:24;;;;;;;6.80;3.10;;;26.00;50.30;;;;;;217175;1286;24877;-64
2023/09/30 13:12:29;;;;;;;6.70;2.90;;;26.00;50.30;;;;;;216955;1298;24205;-64
2023/09/30 13:17:32;;;;;;;8.50;3.10;;;26.00;49.90;;;;;;216800;1298;25474;-64
2023/09/30 13:22:38;;;;;;;6.90;2.20;;;26.00;50.30;;;;;;217492;1293;24090;-64
2023/09/30 13:27:41;;;;;;;11.40;4.90;;;26.00;50.20;;;;;;217283;1286;24257;-66
2023/09/30 13:32:44;;;;;;;26.50;9.40;;;26.10;49.60;;;;;;217349;1283;22740;-64
2023/09/30 13:37:47;;;;;;;18.50;6.90;;;26.10;49.70;;;;;;217130;1291;22575;-61
2023/09/30 13:42:50;;;;;;;12.50;5.10;;;26.30;49.40;;;;;;217200;1295;22598;-63
2023/09/30 13:47:53;;;;;;;17.40;6.40;;;26.10;49.20;;;;;;217260;1298;23940;-63
2023/09/30 13:52:56;;;;;;;12.10;5.10;;;26.10;49.40;;;;;;217517;1291;22557;-62
2023/09/30 13:58:01;;;;;;;18.60;4.60;;;26.00;49.90;;;;;;217083;1285;22656;-64
2023/09/30 14:03:05;;;;;;;9.00;4.40;;;26.00;49.80;;;;;;217207;1298;25349;-59
2023/09/30 14:08:07;;;;;;;10.10;4.70;;;26.10;50.20;;;;;;217456;1292;22554;-59
2023/09/30 14:13:11;;;;;;;17.30;4.70;;;26.10;49.60;;;;;;216992;1298;23029;-58
2023/09/30 14:18:14;;;;;;;10.40;3.90;;;26.10;50.10;;;;;;217162;1298;22553;-60
2023/09/30 14:23:17;;;;;;;10.90;3.30;;;26.20;50.90;;;;;;217235;1276;22670;-60
2023/09/30 14:28:20;;;;;;;11.90;4.00;;;26.30;50.90;;;;;;217149;1276;26205;-63
2023/09/30 14:33:23;;;;;;;10.00;3.60;;;26.10;50.10;;;;;;217060;1295;22579;-58
2023/09/30 14:38:26;;;;;;;12.60;3.80;;;26.20;49.50;;;;;;217049;1285;24094;-58
2023/09/30 14:43:29;;;;;;;19.10;4.30;;;26.20;51.00;;;;;;217059;1292;22575;-59
2023/09/30 14:48:32;;;;;;;10.80;3.70;;;26.20;50.30;;;;;;217287;1288;25348;-59
2023/09/30 14:53:35;;;;;;;9.00;3.60;;;26.10;50.50;;;;;;217252;1297;22733;-58
2023/09/30 14:58:38;;;;;;;13.90;3.40;;;26.10;50.00;;;;;;217307;1295;23332;-63
2023/09/30 15:03:41;;;;;;;10.80;3.60;;;25.90;48.20;;;;;;217265;1298;25267;-59
2023/09/30 15:08:44;;;;;;;14.60;3.10;;;26.00;48.10;;;;;;216766;1297;372575;-60
2023/09/30 15:13:47;;;;;;;7.20;3.80;;;25.80;47.80;;;;;;217136;1298;22550;-59
2023/09/30 15:18:50;;;;;;;12.90;3.50;;;25.40;47.30;;;;;;217013;1296;22608;-59
2023/09/30 15:23:53;;;;;;;9.60;3.50;;;25.30;47.10;;;;;;217361;1297;24403;-60
2023/09/30 15:28:57;;;;;;;8.10;2.70;;;25.10;46.60;;;;;;217322;1292;25339;-60
2023/09/30 15:34:01;;;;;;;5.80;2.60;;;25.00;46.80;;;;;;217503;1298;22601;-60
2023/09/30 15:39:04;;;;;;;7.30;3.20;;;24.90;46.30;;;;;;217133;1276;25724;-60
2023/09/30 15:44:07;;;;;;;5.40;2.60;;;24.80;45.90;;;;;;217151;1294;24419;-59
2023/09/30 15:49:10;;;;;;;11.80;3.50;;;24.80;46.10;;;;;;217307;1298;24828;-60
2023/09/30 15:54:14;;;;;;;5.80;2.80;;;24.70;45.70;;;;;;217100;1292;22559;-61
2023/09/30 15:59:17;;;;;;;6.80;3.00;;;24.50;46.50;;;;;;217130;1285;22570;-60
2023/09/30 16:04:20;;;;;;;11.70;3.00;;;24.40;46.40;;;;;;217172;1288;25324;-58
2023/09/30 16:09:24;;;;;;;12.80;3.10;;;24.30;46.30;;;;;;217140;1285;22675;-61
2023/09/30 16:14:27;;;;;;;15.00;3.00;;;24.20;46.30;;;;;;217089;1276;22551;-60
2023/09/30 16:19:30;;;;;;;18.40;3.70;;;24.10;47.40;;;;;;217382;1292;23054;-60
2023/09/30 16:24:33;;;;;;;5.60;2.90;;;24.00;47.70;;;;;;217318;1295;25359;-60
2023/09/30 16:29:38;;;;;;;10.20;2.60;;;23.90;48.50;;;;;;217101;1285;25248;-58
2023/09/30 16:34:41;;;;;;;13.30;3.50;;;24.20;50.10;;;;;;217220;1291;25372;-58
2023/09/30 16:39:43;;;;;;;9.30;3.10;;;24.30;49.80;;;;;;217408;1298;22692;-59
2023/09/30 16:44:46;;;;;;;10.50;2.90;;;24.60;49.90;;;;;;217205;1291;22874;-60
2023/09/30 16:49:50;;;;;;;11.30;3.00;;;24.80;50.30;;;;;;217612;1291;22553;-60
2023/09/30 16:54:54;;;;;;;7.30;2.40;;;24.90;50.60;;;;;;217065;1291;22556;-61
2023/09/30 16:59:58;;;;;;;9.40;3.10;;;25.00;51.00;;;;;;217131;1294;22555;-61
2023/09/30 17:05:02;;;;;;;7.40;3.00;;;24.90;51.10;;;;;;217196;1280;22556;-58
2023/09/30 17:10:08;;;;;;;8.10;2.60;;;25.00;51.20;;;;;;217190;1298;22849;-61
2023/09/30 17:15:11;;;;;;;10.70;3.00;;;25.00;51.60;;;;;;217422;1295;22573;-60
2023/09/30 17:20:16;;;;;;;7.90;2.30;;;25.00;51.50;;;;;;217339;1294;22570;-61
2023/09/30 17:25:20;;;;;;;7.50;2.90;;;25.10;51.90;;;;;;217142;1295;23861;-61
2023/09/30 17:30:24;;;;;;;17.40;3.60;;;25.10;51.30;;;;;;217377;1291;23006;-61
2023/09/30 17:35:45;;;;;;;8.30;2.70;;;25.10;51.50;;;;;;217534;1291;22598;-58
2023/09/30 17:40:48;;;;;;;8.70;3.40;;;25.20;51.70;;;;;;217428;1289;22559;-58
2023/09/30 17:45:53;;;;;;;16.20;3.50;;;25.10;52.00;;;;;;217325;1295;25332;-59
2023/09/30 17:50:58;;;;;;;16.10;3.20;;;25.10;52.00;;;;;;217526;1289;24372;-58
2023/09/30 17:56:01;;;;;;;7.10;2.70;;;25.10;52.20;;;;;;217383;1294;25575;-56
2023/09/30 18:01:05;;;;;;;17.20;3.20;;;25.10;51.90;;;;;;217546;1284;24260;-61
2023/09/30 18:06:10;;;;;;;7.70;3.00;;;25.10;52.00;;;;;;217188;1276;25539;-60
2023/09/30 18:11:15;;;;;;;8.60;2.80;;;25.10;51.20;;;;;;217547;1281;24251;-62
2023/09/30 18:16:19;;;;;;;5.30;2.80;;;25.00;51.50;;;;;;217371;1291;22552;-61
2023/09/30 18:21:23;;;;;;;7.50;2.80;;;25.00;52.10;;;;;;217447;1298;22574;-64
2023/09/30 18:26:27;;;;;;;5.60;3.00;;;25.10;52.10;;;;;;217399;1298;24087;-64
2023/09/30 18:31:31;;;;;;;3.50;2.30;;;25.00;51.30;;;;;;217388;1298;24356;-61
2023/09/30 18:36:35;;;;;;;8.90;3.20;;;25.00;52.10;;;;;;217093;1298;22569;-59
2023/09/30 18:41:39;;;;;;;9.00;3.10;;;25.10;52.20;;;;;;217485;1278;25519;-62
2023/09/30 18:46:43;;;;;;;6.70;3.30;;;25.10;51.70;;;;;;217679;1291;22553;-60
2023/09/30 18:51:50;;;;;;;4.20;2.90;;;25.10;51.60;;;;;;217354;1294;26680;-60
2023/09/30 18:56:53;;;;;;;7.70;2.80;;;25.00;51.80;;;;;;217509;1288;22560;-62
2023/09/30 19:01:57;;;;;;;7.10;2.60;;;24.90;52.10;;;;;;217107;1297;24800;-63
2023/09/30 19:07:01;;;;;;;8.10;2.90;;;24.80;51.80;;;;;;217456;1292;23110;-64
2023/09/30 19:12:06;;;;;;;7.70;3.50;;;24.90;51.80;;;;;;217619;1292;22683;-63
2023/09/30 19:17:11;;;;;;;12.80;3.20;;;24.90;51.80;;;;;;217590;1294;24774;-63
2023/09/30 19:22:16;;;;;;;11.80;3.90;;;24.90;51.80;;;;;;217367;1292;22680;-61
2023/09/30 19:27:19;;;;;;;8.90;3.50;;;24.90;51.80;;;;;;217639;1291;22553;-62
2023/09/30 19:32:23;;;;;;;9.70;3.10;;;24.80;52.00;;;;;;217296;1295;22676;-63
2023/09/30 19:37:27;;;;;;;4.90;3.00;;;24.90;53.30;;;;;;217474;1298;22552;-62
2023/09/30 19:42:31;;;;;;;5.40;3.00;;;24.90;53.80;;;;;;217306;1296;22604;-63
2023/09/30 19:47:35;;;;;;;10.40;3.10;;;24.90;53.30;;;;;;217372;1280;24318;-62
2023/09/30 19:52:39;;;;;;;7.60;3.20;;;25.00;52.80;;;;;;217247;1294;25465;-60
2023/09/30 19:57:42;;;;;;;7.50;3.40;;;25.00;53.00;;;;;;217304;1295;24321;-60
2023/09/30 20:02:45;;;;;;;7.00;3.00;;;24.90;53.40;;;;;;216881;1291;25166;-62
2023/09/30 20:07:50;;;;;;;14.50;3.70;;;24.90;53.40;;;;;;217223;1291;24254;-64
2023/09/30 20:12:53;;;;;;;21.50;4.40;;;25.00;53.50;;;;;;217306;1291;25312;-64
2023/09/30 20:17:56;;;;;;;7.10;3.50;;;24.90;54.60;;;;;;217188;1291;24400;-64
2023/09/30 20:23:00;;;;;;;10.80;3.10;;;24.80;54.80;;;;;;217329;1291;22852;-62
2023/09/30 20:28:05;;;;;;;7.20;3.60;;;24.80;55.10;;;;;;217445;1292;23930;-64
2023/09/30 20:33:08;;;;;;;8.40;3.20;;;24.80;55.00;;;;;;217294;1291;24299;-63
2023/09/30 20:38:11;;;;;;;11.50;3.20;;;24.80;55.60;;;;;;217053;1294;24144;-63
2023/09/30 20:43:18;;;;;;;8.40;3.60;;;24.80;55.60;;;;;;217015;1294;22560;-61
2023/09/30 20:48:21;;;;;;;9.60;2.90;;;24.70;55.70;;;;;;217234;1285;24924;-62
2023/09/30 20:53:23;;;;;;;13.00;3.70;;;24.70;56.30;;;;;;217423;1295;22681;-60
2023/09/30 20:58:27;;;;;;;5.60;2.90;;;24.70;56.10;;;;;;217243;1291;22546;-61
2023/09/30 21:03:30;;;;;;;16.70;4.80;;;24.70;55.80;;;;;;217307;1285;25038;-61
2023/09/30 21:08:36;;;;;;;12.60;3.90;;;24.70;58.00;;;;;;217417;1291;22556;-61
2023/09/30 21:13:41;;;;;;;13.10;3.80;;;24.80;57.90;;;;;;217249;1281;25016;-62
2023/09/30 21:18:45;;;;;;;7.70;3.50;;;24.80;58.40;;;;;;217186;1292;22676;-63
2023/09/30 21:23:48;;;;;;;7.30;3.20;;;24.80;58.10;;;;;;217069;1294;22719;-61
2023/09/30 21:28:51;;;;;;;10.80;5.40;;;24.80;58.10;;;;;;217058;1291;24325;-61
2023/09/30 21:33:54;;;;;;;13.30;4.10;;;24.70;58.20;;;;;;217181;1285;22724;-59
2023/09/30 21:38:57;;;;;;;11.50;4.70;;;24.70;58.60;;;;;;217380;1291;22565;-60
2023/09/30 21:44:00;;;;;;;8.00;3.80;;;24.70;58.40;;;;;;217199;1292;22575;-60
2023/09/30 21:49:04;;;;;;;17.20;4.50;;;24.70;58.20;;;;;;217247;1291;24299;-60
2023/09/30 21:54:08;;;;;;;5.20;3.40;;;24.70;58.20;;;;;;217303;1296;22563;-61
2023/09/30 21:59:12;;;;;;;9.10;4.00;;;24.70;58.50;;;;;;217288;1291;25524;-61
2023/09/30 22:04:17;;;;;;;5.20;3.20;;;24.70;58.40;;;;;;217417;1292;22662;-62
2023/09/30 22:09:20;;;;;;;6.80;3.60;;;24.70;58.60;;;;;;217329;1294;22557;-61
2023/09/30 22:14:23;;;;;;;7.90;3.20;;;24.70;58.50;;;;;;217259;1291;24613;-62
2023/09/30 22:19:26;;;;;;;7.20;3.90;;;24.70;58.20;;;;;;217209;1295;22552;-60
2023/09/30 22:24:38;;;;;;;8.60;3.70;;;24.70;58.30;;;;;;217267;1291;23958;-61
2023/09/30 22:29:43;;;;;;;3.90;2.80;;;24.70;58.10;;;;;;217297;1294;22555;-60
2023/09/30 22:34:46;;;;;;;7.70;3.30;;;24.60;58.10;;;;;;217257;1292;22569;-61
2023/09/30 22:39:49;;;;;;;6.50;3.70;;;24.70;58.20;;;;;;216959;1294;22556;-61
2023/09/30 22:44:52;;;;;;;10.10;5.20;;;24.60;58.20;;;;;;217302;1294;22670;-61
2023/09/30 22:49:56;;;;;;;8.30;3.50;;;24.60;58.20;;;;;;217300;1294;22569;-61
2023/09/30 22:55:00;;;;;;;7.70;3.50;;;24.60;58.20;;;;;;217489;1295;24238;-61
2023/09/30 23:00:06;;;;;;;3.70;2.90;;;24.60;58.30;;;;;;217139;1291;25374;-60
2023/09/30 23:05:11;;;;;;;7.20;4.10;;;24.60;58.40;;;;;;217297;1291;22546;-61
2023/09/30 23:10:16;;;;;;;9.20;5.10;;;24.50;58.30;;;;;;217200;1291;24426;-60
2023/09/30 23:15:20;;;;;;;6.40;3.70;;;24.50;58.40;;;;;;217399;1292;22562;-60
2023/09/30 23:20:26;;;;;;;6.90;4.20;;;24.50;58.60;;;;;;217156;1291;23994;-61
2023/09/30 23:25:31;;;;;;;7.60;4.10;;;24.50;58.20;;;;;;217159;1285;22604;-62
2023/09/30 23:30:34;;;;;;;4.80;3.70;;;24.50;58.70;;;;;;217495;1288;23728;-60
2023/09/30 23:35:38;;;;;;;6.10;3.70;;;24.50;58.20;;;;;;217364;1292;22570;-61
2023/09/30 23:40:41;;;;;;;7.80;4.00;;;24.50;58.20;;;;;;217360;1283;25364;-60
2023/09/30 23:45:47;;;;;;;14.70;3.80;;;24.50;58.40;;;;;;217074;1297;22553;-60
2023/09/30 23:50:52;;;;;;;6.50;4.10;;;24.50;58.30;;;;;;217247;1297;24257;-60
2023/09/30 23:55:55;;;;;;;8.20;4.40;;;24.40;58.40;;;;;;217302;1295;22826;-61
